sensor_id;sensor_type;location;lat;lon;timestamp;temperature;humidity
75091;DHT22;63674;48.048;8.306;2023-07-13T00:01:14;14.90;99.90
75091;DHT22;63674;48.048;8.306;2023-07-13T00:03:44;14.90;99.90
75091;DHT22;63674;48.048;8.306;2023-07-13T00:06:12;14.80;99.90
75091;DHT22;63674;48.048;8.306;2023-07-13T00:08:41;14.90;99.90
75091;DHT22;63674;48.048;8.306;2023-07-13T00:11:11;15.00;99.90
75091;DHT22;63674;48.048;8.306;2023-07-13T00:13:40;15.00;99.90
75091;DHT22;63674;48.048;8.306;2023-07-13T00:16:10;14.90;99.90
75091;DHT22;63674;48.048;8.306;2023-07-13T00:18:41;15.00;99.90
75091;DHT22;63674;48.048;8.306;2023-07-13T00:21:11;15.00;99.90
75091;DHT22;63674;48.048;8.306;2023-07-13T00:23:41;15.00;99.90
75091;DHT22;63674;48.048;8.306;2023-07-13T00:26:11;14.90;99.90
75091;DHT22;63674;48.048;8.306;2023-07-13T00:28:41;14.80;99.90
75091;DHT22;63674;48.048;8.306;2023-07-13T00:31:10;14.80;99.90
75091;DHT22;63674;48.048;8.306;2023-07-13T00:33:41;14.90;99.90
75091;DHT22;63674;48.048;8.306;2023-07-13T00:36:12;14.80;99.90
75091;DHT22;63674;48.048;8.306;2023-07-13T00:38:41;14.80;99.90
75091;DHT22;63674;48.048;8.306;2023-07-13T00:41:10;14.70;99.90
75091;DHT22;63674;48.048;8.306;2023-07-13T00:43:40;14.60;99.90
75091;DHT22;63674;48.048;8.306;2023-07-13T00:49:01;14.50;99.90
75091;DHT22;63674;48.048;8.306;2023-07-13T00:51:34;14.50;99.90
75091;DHT22;63674;48.048;8.306;2023-07-13T00:54:07;14.50;99.90
75091;DHT22;63674;48.048;8.306;2023-07-13T00:56:39;14.50;99.90
75091;DHT22;63674;48.048;8.306;2023-07-13T00:59:10;14.40;99.90
75091;DHT22;63674;48.048;8.306;2023-07-13T01:01:40;14.40;99.90
75091;DHT22;63674;48.048;8.306;2023-07-13T01:04:09;14.30;99.90
75091;DHT22;63674;48.048;8.306;2023-07-13T01:06:40;14.30;99.90
75091;DHT22;63674;48.048;8.306;2023-07-13T01:09:11;14.30;99.90
75091;DHT22;63674;48.048;8.306;2023-07-13T01:11:40;14.30;99.90
75091;DHT22;63674;48.048;8.306;2023-07-13T01:14:09;14.40;99.90
75091;DHT22;63674;48.048;8.306;2023-07-13T01:16:40;14.30;99.90
75091;DHT22;63674;48.048;8.306;2023-07-13T01:19:22;14.30;99.90
75091;DHT22;63674;48.048;8.306;2023-07-13T01:22:06;14.30;99.90
75091;DHT22;63674;48.048;8.306;2023-07-13T01:24:37;14.30;99.90
75091;DHT22;63674;48.048;8.306;2023-07-13T01:27:08;14.40;99.90
75091;DHT22;63674;48.048;8.306;2023-07-13T01:29:40;14.40;99.90
75091;DHT22;63674;48.048;8.306;2023-07-13T01:32:11;14.40;99.90
75091;DHT22;63674;48.048;8.306;2023-07-13T01:34:42;14.40;99.90
75091;DHT22;63674;48.048;8.306;2023-07-13T01:37:12;14.30;99.90
75091;DHT22;63674;48.048;8.306;2023-07-13T01:39:41;14.40;99.90
75091;DHT22;63674;48.048;8.306;2023-07-13T01:42:10;14.30;99.90
75091;DHT22;63674;48.048;8.306;2023-07-13T01:44:38;14.40;99.90
75091;DHT22;63674;48.048;8.306;2023-07-13T01:47:07;14.40;99.90
75091;DHT22;63674;48.048;8.306;2023-07-13T01:49:36;14.30;99.90
75091;DHT22;63674;48.048;8.306;2023-07-13T01:52:05;14.30;99.90
75091;DHT22;63674;48.048;8.306;2023-07-13T01:54:36;14.30;99.90
75091;DHT22;63674;48.048;8.306;2023-07-13T01:57:05;14.30;99.90
75091;DHT22;63674;48.048;8.306;2023-07-13T01:59:33;14.30;99.90
75091;DHT22;63674;48.048;8.306;2023-07-13T02:02:02;14.20;99.90
75091;DHT22;63674;48.048;8.306;2023-07-13T02:04:31;14.20;99.90
75091;DHT22;63674;48.048;8.306;2023-07-13T02:07:00;14.10;99.90
75091;DHT22;63674;48.048;8.306;2023-07-13T02:09:29;14.10;99.90
75091;DHT22;63674;48.048;8.306;2023-07-13T02:11:59;14.10;99.90
75091;DHT22;63674;48.048;8.306;2023-07-13T02:14:28;13.90;99.90
75091;DHT22;63674;48.048;8.306;2023-07-13T02:16:56;13.90;99.90
75091;DHT22;63674;48.048;8.306;2023-07-13T02:19:25;13.80;99.90
75091;DHT22;63674;48.048;8.306;2023-07-13T02:21:54;13.80;99.90
75091;DHT22;63674;48.048;8.306;2023-07-13T02:24:23;13.80;99.90
75091;DHT22;63674;48.048;8.306;2023-07-13T02:26:51;13.80;99.90
75091;DHT22;63674;48.048;8.306;2023-07-13T02:29:21;13.80;99.90
75091;DHT22;63674;48.048;8.306;2023-07-13T02:31:50;13.80;99.90
75091;DHT22;63674;48.048;8.306;2023-07-13T02:34:19;13.80;99.90
75091;DHT22;63674;48.048;8.306;2023-07-13T02:36:47;13.80;99.90
75091;DHT22;63674;48.048;8.306;2023-07-13T02:39:16;13.80;99.90
75091;DHT22;63674;48.048;8.306;2023-07-13T02:41:45;13.80;99.90
75091;DHT22;63674;48.048;8.306;2023-07-13T02:44:14;13.70;99.90
75091;DHT22;63674;48.048;8.306;2023-07-13T02:46:45;13.60;99.90
75091;DHT22;63674;48.048;8.306;2023-07-13T02:49:13;13.50;99.90
75091;DHT22;63674;48.048;8.306;2023-07-13T02:51:42;13.40;99.90
75091;DHT22;63674;48.048;8.306;2023-07-13T02:54:10;13.20;99.90
75091;DHT22;63674;48.048;8.306;2023-07-13T02:56:40;13.10;99.90
75091;DHT22;63674;48.048;8.306;2023-07-13T02:59:10;13.00;99.90
75091;DHT22;63674;48.048;8.306;2023-07-13T03:01:39;12.90;99.90
75091;DHT22;63674;48.048;8.306;2023-07-13T03:04:09;12.80;99.90
75091;DHT22;63674;48.048;8.306;2023-07-13T03:06:39;12.80;99.90
75091;DHT22;63674;48.048;8.306;2023-07-13T03:09:08;12.80;99.90
75091;DHT22;63674;48.048;8.306;2023-07-13T03:11:37;12.80;99.90
75091;DHT22;63674;48.048;8.306;2023-07-13T03:14:06;12.70;99.90
75091;DHT22;63674;48.048;8.306;2023-07-13T03:16:39;12.70;99.90
75091;DHT22;63674;48.048;8.306;2023-07-13T03:19:16;12.70;99.90
75091;DHT22;63674;48.048;8.306;2023-07-13T03:21:45;12.80;99.90
75091;DHT22;63674;48.048;8.306;2023-07-13T03:24:13;12.80;99.90
75091;DHT22;63674;48.048;8.306;2023-07-13T03:26:42;12.80;99.90
75091;DHT22;63674;48.048;8.306;2023-07-13T03:29:11;12.80;99.90
75091;DHT22;63674;48.048;8.306;2023-07-13T03:31:40;12.80;99.90
75091;DHT22;63674;48.048;8.306;2023-07-13T03:34:08;12.80;99.90
75091;DHT22;63674;48.048;8.306;2023-07-13T03:36:38;12.70;99.90
75091;DHT22;63674;48.048;8.306;2023-07-13T03:39:08;12.70;99.90
75091;DHT22;63674;48.048;8.306;2023-07-13T03:41:37;12.80;99.90
75091;DHT22;63674;48.048;8.306;2023-07-13T03:44:05;12.90;99.90
75091;DHT22;63674;48.048;8.306;2023-07-13T03:46:34;12.90;99.90
75091;DHT22;63674;48.048;8.306;2023-07-13T03:49:04;12.90;99.90
75091;DHT22;63674;48.048;8.306;2023-07-13T03:51:33;12.90;99.90
75091;DHT22;63674;48.048;8.306;2023-07-13T03:54:03;12.80;99.90
75091;DHT22;63674;48.048;8.306;2023-07-13T03:56:32;12.90;99.90
75091;DHT22;63674;48.048;8.306;2023-07-13T03:59:01;13.00;99.90
75091;DHT22;63674;48.048;8.306;2023-07-13T04:01:30;13.00;99.90
75091;DHT22;63674;48.048;8.306;2023-07-13T04:03:59;13.00;99.90
75091;DHT22;63674;48.048;8.306;2023-07-13T04:06:30;13.10;99.90
75091;DHT22;63674;48.048;8.306;2023-07-13T04:09:02;13.20;99.90
75091;DHT22;63674;48.048;8.306;2023-07-13T04:11:33;13.30;99.90
75091;DHT22;63674;48.048;8.306;2023-07-13T04:14:03;13.30;99.90
75091;DHT22;63674;48.048;8.306;2023-07-13T04:16:33;13.30;99.90
75091;DHT22;63674;48.048;8.306;2023-07-13T04:19:01;13.30;99.90
75091;DHT22;63674;48.048;8.306;2023-07-13T04:21:31;13.30;99.90
75091;DHT22;63674;48.048;8.306;2023-07-13T04:23:59;13.30;99.90
75091;DHT22;63674;48.048;8.306;2023-07-13T04:26:30;13.30;99.90
75091;DHT22;63674;48.048;8.306;2023-07-13T04:28:58;13.30;99.90
75091;DHT22;63674;48.048;8.306;2023-07-13T04:31:27;13.20;99.90
75091;DHT22;63674;48.048;8.306;2023-07-13T04:33:56;13.20;99.90
75091;DHT22;63674;48.048;8.306;2023-07-13T04:36:25;13.20;99.90
75091;DHT22;63674;48.048;8.306;2023-07-13T04:38:54;13.20;99.90
75091;DHT22;63674;48.048;8.306;2023-07-13T04:41:24;13.20;99.90
75091;DHT22;63674;48.048;8.306;2023-07-13T04:43:53;13.20;99.90
75091;DHT22;63674;48.048;8.306;2023-07-13T04:46:23;13.30;99.90
75091;DHT22;63674;48.048;8.306;2023-07-13T04:48:51;13.40;99.90
75091;DHT22;63674;48.048;8.306;2023-07-13T04:51:21;13.50;99.90
75091;DHT22;63674;48.048;8.306;2023-07-13T04:53:49;13.60;99.90
75091;DHT22;63674;48.048;8.306;2023-07-13T04:56:27;13.70;99.90
75091;DHT22;63674;48.048;8.306;2023-07-13T04:58:55;13.70;99.90
75091;DHT22;63674;48.048;8.306;2023-07-13T05:01:25;13.70;99.90
75091;DHT22;63674;48.048;8.306;2023-07-13T05:03:54;13.80;99.90
75091;DHT22;63674;48.048;8.306;2023-07-13T05:06:25;13.90;99.90
75091;DHT22;63674;48.048;8.306;2023-07-13T05:08:55;13.80;99.90
75091;DHT22;63674;48.048;8.306;2023-07-13T05:11:24;13.90;99.90
75091;DHT22;63674;48.048;8.306;2023-07-13T05:13:54;14.00;99.90
75091;DHT22;63674;48.048;8.306;2023-07-13T05:16:23;14.00;99.90
75091;DHT22;63674;48.048;8.306;2023-07-13T05:18:51;14.20;99.90
75091;DHT22;63674;48.048;8.306;2023-07-13T05:21:20;14.30;99.90
75091;DHT22;63674;48.048;8.306;2023-07-13T05:23:50;14.40;99.90
75091;DHT22;63674;48.048;8.306;2023-07-13T05:26:19;14.50;99.90
75091;DHT22;63674;48.048;8.306;2023-07-13T05:28:47;14.60;99.90
75091;DHT22;63674;48.048;8.306;2023-07-13T05:31:17;14.70;99.90
75091;DHT22;63674;48.048;8.306;2023-07-13T05:33:46;14.70;99.90
75091;DHT22;63674;48.048;8.306;2023-07-13T05:36:15;14.80;99.90
75091;DHT22;63674;48.048;8.306;2023-07-13T05:38:43;14.80;99.90
75091;DHT22;63674;48.048;8.306;2023-07-13T05:41:12;14.90;99.90
75091;DHT22;63674;48.048;8.306;2023-07-13T05:43:40;14.90;99.90
75091;DHT22;63674;48.048;8.306;2023-07-13T05:46:09;15.10;99.90
75091;DHT22;63674;48.048;8.306;2023-07-13T05:48:39;15.10;99.90
75091;DHT22;63674;48.048;8.306;2023-07-13T05:51:07;15.10;99.90
75091;DHT22;63674;48.048;8.306;2023-07-13T05:53:36;15.20;99.90
75091;DHT22;63674;48.048;8.306;2023-07-13T05:56:05;15.20;99.90
75091;DHT22;63674;48.048;8.306;2023-07-13T05:58:34;15.30;99.90
75091;DHT22;63674;48.048;8.306;2023-07-13T06:01:04;15.50;99.90
75091;DHT22;63674;48.048;8.306;2023-07-13T06:03:34;15.60;99.90
75091;DHT22;63674;48.048;8.306;2023-07-13T06:06:07;15.70;99.90
75091;DHT22;63674;48.048;8.306;2023-07-13T06:08:37;15.60;99.90
75091;DHT22;63674;48.048;8.306;2023-07-13T06:11:07;15.60;99.90
75091;DHT22;63674;48.048;8.306;2023-07-13T06:13:38;15.50;99.90
75091;DHT22;63674;48.048;8.306;2023-07-13T06:16:07;15.50;99.90
75091;DHT22;63674;48.048;8.306;2023-07-13T06:18:37;15.60;99.90
75091;DHT22;63674;48.048;8.306;2023-07-13T06:21:08;15.70;99.90
75091;DHT22;63674;48.048;8.306;2023-07-13T06:23:38;15.70;99.90
75091;DHT22;63674;48.048;8.306;2023-07-13T06:26:08;15.90;99.90
75091;DHT22;63674;48.048;8.306;2023-07-13T06:28:37;16.00;99.90
75091;DHT22;63674;48.048;8.306;2023-07-13T06:31:08;16.10;99.90
75091;DHT22;63674;48.048;8.306;2023-07-13T06:33:39;16.10;99.90
75091;DHT22;63674;48.048;8.306;2023-07-13T06:36:09;16.30;99.90
75091;DHT22;63674;48.048;8.306;2023-07-13T06:38:38;16.50;99.90
75091;DHT22;63674;48.048;8.306;2023-07-13T06:41:07;16.60;99.90
75091;DHT22;63674;48.048;8.306;2023-07-13T06:43:37;16.90;99.90
75091;DHT22;63674;48.048;8.306;2023-07-13T06:46:05;17.10;99.90
75091;DHT22;63674;48.048;8.306;2023-07-13T06:48:34;17.50;99.90
75091;DHT22;63674;48.048;8.306;2023-07-13T06:51:03;17.90;99.90
75091;DHT22;63674;48.048;8.306;2023-07-13T06:53:33;18.20;99.90
75091;DHT22;63674;48.048;8.306;2023-07-13T06:56:02;18.50;99.90
75091;DHT22;63674;48.048;8.306;2023-07-13T06:58:31;18.60;99.90
75091;DHT22;63674;48.048;8.306;2023-07-13T07:01:01;18.80;99.90
75091;DHT22;63674;48.048;8.306;2023-07-13T07:03:30;19.00;99.90
75091;DHT22;63674;48.048;8.306;2023-07-13T07:06:15;19.10;99.90
75091;DHT22;63674;48.048;8.306;2023-07-13T07:08:46;19.60;99.90
75091;DHT22;63674;48.048;8.306;2023-07-13T07:11:16;19.70;99.90
75091;DHT22;63674;48.048;8.306;2023-07-13T07:13:46;19.80;99.90
75091;DHT22;63674;48.048;8.306;2023-07-13T07:16:15;19.70;99.90
75091;DHT22;63674;48.048;8.306;2023-07-13T07:18:44;19.90;99.90
75091;DHT22;63674;48.048;8.306;2023-07-13T07:21:13;20.20;99.90
75091;DHT22;63674;48.048;8.306;2023-07-13T07:23:42;20.70;99.90
75091;DHT22;63674;48.048;8.306;2023-07-13T07:26:12;20.60;99.90
75091;DHT22;63674;48.048;8.306;2023-07-13T07:28:40;20.90;98.90
75091;DHT22;63674;48.048;8.306;2023-07-13T07:31:15;21.60;95.00
75091;DHT22;63674;48.048;8.306;2023-07-13T07:33:46;22.10;73.90
75091;DHT22;63674;48.048;8.306;2023-07-13T07:36:17;22.20;74.20
75091;DHT22;63674;48.048;8.306;2023-07-13T07:38:48;22.10;64.20
75091;DHT22;63674;48.048;8.306;2023-07-13T07:41:18;21.90;67.80
75091;DHT22;63674;48.048;8.306;2023-07-13T07:43:50;22.20;77.80
75091;DHT22;63674;48.048;8.306;2023-07-13T07:46:19;22.40;81.10
75091;DHT22;63674;48.048;8.306;2023-07-13T07:48:47;22.10;90.40
75091;DHT22;63674;48.048;8.306;2023-07-13T07:51:16;21.50;73.70
75091;DHT22;63674;48.048;8.306;2023-07-13T07:53:45;21.10;81.40
75091;DHT22;63674;48.048;8.306;2023-07-13T07:56:13;21.10;69.80
75091;DHT22;63674;48.048;8.306;2023-07-13T07:58:47;20.80;89.00
75091;DHT22;63674;48.048;8.306;2023-07-13T08:01:19;21.00;98.80
75091;DHT22;63674;48.048;8.306;2023-07-13T08:03:50;21.20;84.40
75091;DHT22;63674;48.048;8.306;2023-07-13T08:06:22;21.80;69.00
75091;DHT22;63674;48.048;8.306;2023-07-13T08:08:54;22.50;73.20
75091;DHT22;63674;48.048;8.306;2023-07-13T08:11:22;22.60;61.80
75091;DHT22;63674;48.048;8.306;2023-07-13T08:13:55;22.80;63.30
75091;DHT22;63674;48.048;8.306;2023-07-13T08:16:24;22.80;63.90
75091;DHT22;63674;48.048;8.306;2023-07-13T08:18:54;22.00;59.60
75091;DHT22;63674;48.048;8.306;2023-07-13T08:21:23;22.00;68.20
75091;DHT22;63674;48.048;8.306;2023-07-13T08:23:51;22.60;65.80
75091;DHT22;63674;48.048;8.306;2023-07-13T08:26:20;22.90;58.60
75091;DHT22;63674;48.048;8.306;2023-07-13T08:28:48;23.30;59.90
75091;DHT22;63674;48.048;8.306;2023-07-13T08:31:18;23.60;59.60
75091;DHT22;63674;48.048;8.306;2023-07-13T08:33:47;23.40;57.30
75091;DHT22;63674;48.048;8.306;2023-07-13T08:36:16;23.40;58.30
75091;DHT22;63674;48.048;8.306;2023-07-13T08:38:44;23.30;57.70
75091;DHT22;63674;48.048;8.306;2023-07-13T08:41:14;23.30;61.80
75091;DHT22;63674;48.048;8.306;2023-07-13T08:43:47;23.40;55.40
75091;DHT22;63674;48.048;8.306;2023-07-13T08:46:23;23.30;62.40
75091;DHT22;63674;48.048;8.306;2023-07-13T08:48:57;23.70;56.40
75091;DHT22;63674;48.048;8.306;2023-07-13T08:51:34;24.00;63.90
75091;DHT22;63674;48.048;8.306;2023-07-13T08:54:16;24.30;54.30
75091;DHT22;63674;48.048;8.306;2023-07-13T08:56:50;23.70;56.80
75091;DHT22;63674;48.048;8.306;2023-07-13T08:59:25;23.90;53.90
75091;DHT22;63674;48.048;8.306;2023-07-13T09:02:08;23.80;54.80
75091;DHT22;63674;48.048;8.306;2023-07-13T09:04:49;23.80;51.10
75091;DHT22;63674;48.048;8.306;2023-07-13T09:07:27;23.80;55.30
75091;DHT22;63674;48.048;8.306;2023-07-13T09:10:09;23.60;57.50
75091;DHT22;63674;48.048;8.306;2023-07-13T09:12:51;23.10;51.60
75091;DHT22;63674;48.048;8.306;2023-07-13T09:15:29;23.00;54.60
75091;DHT22;63674;48.048;8.306;2023-07-13T09:18:03;23.20;54.70
75091;DHT22;63674;48.048;8.306;2023-07-13T09:20:36;23.50;53.70
75091;DHT22;63674;48.048;8.306;2023-07-13T09:23:20;23.80;56.80
75091;DHT22;63674;48.048;8.306;2023-07-13T09:25:51;23.90;53.60
75091;DHT22;63674;48.048;8.306;2023-07-13T09:28:25;23.90;53.40
75091;DHT22;63674;48.048;8.306;2023-07-13T09:33:44;23.80;54.60
75091;DHT22;63674;48.048;8.306;2023-07-13T09:36:21;24.10;50.00
75091;DHT22;63674;48.048;8.306;2023-07-13T09:38:57;24.30;51.70
75091;DHT22;63674;48.048;8.306;2023-07-13T09:41:34;24.60;52.20
75091;DHT22;63674;48.048;8.306;2023-07-13T09:44:10;24.20;52.90
75091;DHT22;63674;48.048;8.306;2023-07-13T09:46:44;24.10;53.20
75091;DHT22;63674;48.048;8.306;2023-07-13T09:49:17;24.10;47.10
75091;DHT22;63674;48.048;8.306;2023-07-13T09:51:46;24.60;55.20
75091;DHT22;63674;48.048;8.306;2023-07-13T09:54:24;24.70;49.20
75091;DHT22;63674;48.048;8.306;2023-07-13T09:56:56;24.50;48.60
75091;DHT22;63674;48.048;8.306;2023-07-13T09:59:29;24.30;52.40
75091;DHT22;63674;48.048;8.306;2023-07-13T10:01:59;24.00;50.70
75091;DHT22;63674;48.048;8.306;2023-07-13T10:04:31;23.80;54.50
75091;DHT22;63674;48.048;8.306;2023-07-13T10:07:08;23.20;50.00
75091;DHT22;63674;48.048;8.306;2023-07-13T10:09:56;22.90;56.70
75091;DHT22;63674;48.048;8.306;2023-07-13T10:12:25;23.30;55.20
75091;DHT22;63674;48.048;8.306;2023-07-13T10:14:56;23.60;52.20
75091;DHT22;63674;48.048;8.306;2023-07-13T10:17:46;23.70;54.50
75091;DHT22;63674;48.048;8.306;2023-07-13T10:20:17;23.90;55.50
75091;DHT22;63674;48.048;8.306;2023-07-13T10:22:52;24.20;57.00
75091;DHT22;63674;48.048;8.306;2023-07-13T10:25:25;24.50;57.90
75091;DHT22;63674;48.048;8.306;2023-07-13T10:28:00;24.30;47.60
75091;DHT22;63674;48.048;8.306;2023-07-13T10:30:35;23.60;49.60
75091;DHT22;63674;48.048;8.306;2023-07-13T10:33:10;23.00;51.30
75091;DHT22;63674;48.048;8.306;2023-07-13T10:35:43;22.90;54.40
75091;DHT22;63674;48.048;8.306;2023-07-13T10:38:18;23.20;57.50
75091;DHT22;63674;48.048;8.306;2023-07-13T10:40:54;23.60;55.00
75091;DHT22;63674;48.048;8.306;2023-07-13T10:43:28;24.10;56.10
75091;DHT22;63674;48.048;8.306;2023-07-13T10:46:04;24.30;50.70
75091;DHT22;63674;48.048;8.306;2023-07-13T10:48:35;24.20;44.80
75091;DHT22;63674;48.048;8.306;2023-07-13T10:51:07;24.20;53.90
75091;DHT22;63674;48.048;8.306;2023-07-13T10:53:38;24.40;49.80
75091;DHT22;63674;48.048;8.306;2023-07-13T10:56:29;24.50;47.80
75091;DHT22;63674;48.048;8.306;2023-07-13T10:59:11;23.90;49.40
75091;DHT22;63674;48.048;8.306;2023-07-13T11:01:49;23.20;43.60
75091;DHT22;63674;48.048;8.306;2023-07-13T11:04:22;23.30;53.00
75091;DHT22;63674;48.048;8.306;2023-07-13T11:06:59;23.70;49.80
75091;DHT22;63674;48.048;8.306;2023-07-13T11:09:37;24.00;49.50
75091;DHT22;63674;48.048;8.306;2023-07-13T11:12:09;24.30;51.10
75091;DHT22;63674;48.048;8.306;2023-07-13T11:15:09;24.40;45.40
75091;DHT22;63674;48.048;8.306;2023-07-13T11:17:50;24.40;45.40
75091;DHT22;63674;48.048;8.306;2023-07-13T11:20:35;24.60;47.00
75091;DHT22;63674;48.048;8.306;2023-07-13T11:23:20;24.50;42.20
75091;DHT22;63674;48.048;8.306;2023-07-13T11:25:55;24.50;43.90
75091;DHT22;63674;48.048;8.306;2023-07-13T11:28:25;24.30;42.50
75091;DHT22;63674;48.048;8.306;2023-07-13T11:31:14;24.40;44.20
75091;DHT22;63674;48.048;8.306;2023-07-13T11:33:56;24.50;41.30
75091;DHT22;63674;48.048;8.306;2023-07-13T11:36:32;24.70;45.60
75091;DHT22;63674;48.048;8.306;2023-07-13T11:39:14;25.10;41.20
75091;DHT22;63674;48.048;8.306;2023-07-13T11:41:50;25.00;44.90
75091;DHT22;63674;48.048;8.306;2023-07-13T11:44:24;24.60;40.50
75091;DHT22;63674;48.048;8.306;2023-07-13T11:46:55;24.00;41.40
75091;DHT22;63674;48.048;8.306;2023-07-13T11:49:30;24.40;45.00
75091;DHT22;63674;48.048;8.306;2023-07-13T11:52:01;24.40;45.10
75091;DHT22;63674;48.048;8.306;2023-07-13T11:54:33;24.60;45.30
75091;DHT22;63674;48.048;8.306;2023-07-13T11:57:19;25.00;43.90
75091;DHT22;63674;48.048;8.306;2023-07-13T11:59:52;25.10;41.00
75091;DHT22;63674;48.048;8.306;2023-07-13T12:02:27;25.00;40.60
75091;DHT22;63674;48.048;8.306;2023-07-13T12:04:58;24.90;39.40
75091;DHT22;63674;48.048;8.306;2023-07-13T12:07:48;24.60;40.60
75091;DHT22;63674;48.048;8.306;2023-07-13T12:10:22;24.90;41.40
75091;DHT22;63674;48.048;8.306;2023-07-13T12:12:54;25.10;40.90
75091;DHT22;63674;48.048;8.306;2023-07-13T12:15:27;24.70;38.90
75091;DHT22;63674;48.048;8.306;2023-07-13T12:18:01;24.60;40.30
75091;DHT22;63674;48.048;8.306;2023-07-13T12:20:35;24.70;42.00
75091;DHT22;63674;48.048;8.306;2023-07-13T12:23:06;24.80;38.30
75091;DHT22;63674;48.048;8.306;2023-07-13T12:25:44;25.00;40.50
75091;DHT22;63674;48.048;8.306;2023-07-13T12:28:28;24.80;38.30
75091;DHT22;63674;48.048;8.306;2023-07-13T12:31:01;25.00;35.70
75091;DHT22;63674;48.048;8.306;2023-07-13T12:33:32;25.20;35.70
75091;DHT22;63674;48.048;8.306;2023-07-13T12:36:04;25.00;38.40
75091;DHT22;63674;48.048;8.306;2023-07-13T12:38:34;25.10;33.40
75091;DHT22;63674;48.048;8.306;2023-07-13T12:41:05;24.90;35.90
75091;DHT22;63674;48.048;8.306;2023-07-13T12:43:37;24.50;37.20
75091;DHT22;63674;48.048;8.306;2023-07-13T12:46:17;24.60;35.40
75091;DHT22;63674;48.048;8.306;2023-07-13T12:48:49;24.70;37.00
75091;DHT22;63674;48.048;8.306;2023-07-13T12:51:34;24.90;35.30
75091;DHT22;63674;48.048;8.306;2023-07-13T12:54:16;25.00;37.70
75091;DHT22;63674;48.048;8.306;2023-07-13T12:56:51;24.50;35.70
75091;DHT22;63674;48.048;8.306;2023-07-13T12:59:23;24.50;39.40
75091;DHT22;63674;48.048;8.306;2023-07-13T13:01:54;24.70;40.00
75091;DHT22;63674;48.048;8.306;2023-07-13T13:04:23;24.90;33.00
75091;DHT22;63674;48.048;8.306;2023-07-13T13:07:01;24.60;34.70
75091;DHT22;63674;48.048;8.306;2023-07-13T13:09:31;24.90;35.10
75091;DHT22;63674;48.048;8.306;2023-07-13T13:12:01;24.90;39.10
75091;DHT22;63674;48.048;8.306;2023-07-13T13:14:29;24.70;35.10
75091;DHT22;63674;48.048;8.306;2023-07-13T13:16:58;24.20;36.50
75091;DHT22;63674;48.048;8.306;2023-07-13T13:19:29;23.70;37.70
75091;DHT22;63674;48.048;8.306;2023-07-13T13:21:57;23.50;36.80
75091;DHT22;63674;48.048;8.306;2023-07-13T13:24:27;23.40;40.20
75091;DHT22;63674;48.048;8.306;2023-07-13T13:26:56;23.40;42.20
75091;DHT22;63674;48.048;8.306;2023-07-13T13:29:27;23.50;43.00
75091;DHT22;63674;48.048;8.306;2023-07-13T13:31:56;23.90;42.20
75091;DHT22;63674;48.048;8.306;2023-07-13T13:34:25;24.20;45.50
75091;DHT22;63674;48.048;8.306;2023-07-13T13:36:54;24.40;43.30
75091;DHT22;63674;48.048;8.306;2023-07-13T13:39:31;24.30;43.60
75091;DHT22;63674;48.048;8.306;2023-07-13T13:42:01;24.40;40.30
75091;DHT22;63674;48.048;8.306;2023-07-13T13:44:33;24.10;37.90
75091;DHT22;63674;48.048;8.306;2023-07-13T13:47:02;23.80;41.30
75091;DHT22;63674;48.048;8.306;2023-07-13T13:49:31;23.70;45.90
75091;DHT22;63674;48.048;8.306;2023-07-13T13:52:00;24.20;46.30
75091;DHT22;63674;48.048;8.306;2023-07-13T13:54:28;24.40;47.20
75091;DHT22;63674;48.048;8.306;2023-07-13T13:56:57;24.60;48.80
75091;DHT22;63674;48.048;8.306;2023-07-13T13:59:27;24.50;44.20
75091;DHT22;63674;48.048;8.306;2023-07-13T14:01:57;24.10;44.90
75091;DHT22;63674;48.048;8.306;2023-07-13T14:04:27;23.70;45.80
75091;DHT22;63674;48.048;8.306;2023-07-13T14:06:56;23.30;44.20
75091;DHT22;63674;48.048;8.306;2023-07-13T14:09:24;23.00;44.30
75091;DHT22;63674;48.048;8.306;2023-07-13T14:11:53;23.10;50.60
75091;DHT22;63674;48.048;8.306;2023-07-13T14:14:23;23.40;51.80
75091;DHT22;63674;48.048;8.306;2023-07-13T14:16:55;23.40;50.90
75091;DHT22;63674;48.048;8.306;2023-07-13T14:19:25;23.10;47.60
75091;DHT22;63674;48.048;8.306;2023-07-13T14:21:54;22.80;53.60
75091;DHT22;63674;48.048;8.306;2023-07-13T14:24:23;23.00;55.60
75091;DHT22;63674;48.048;8.306;2023-07-13T14:26:52;23.00;57.30
75091;DHT22;63674;48.048;8.306;2023-07-13T14:29:21;23.20;54.30
75091;DHT22;63674;48.048;8.306;2023-07-13T14:31:51;23.00;54.00
75091;DHT22;63674;48.048;8.306;2023-07-13T14:34:21;22.80;56.60
75091;DHT22;63674;48.048;8.306;2023-07-13T14:36:50;22.80;57.50
75091;DHT22;63674;48.048;8.306;2023-07-13T14:39:21;22.70;58.40
75091;DHT22;63674;48.048;8.306;2023-07-13T14:41:53;22.80;57.00
75091;DHT22;63674;48.048;8.306;2023-07-13T14:44:24;23.10;58.40
75091;DHT22;63674;48.048;8.306;2023-07-13T14:46:57;23.10;58.10
75091;DHT22;63674;48.048;8.306;2023-07-13T14:49:30;22.70;52.00
75091;DHT22;63674;48.048;8.306;2023-07-13T14:52:05;22.50;55.70
75091;DHT22;63674;48.048;8.306;2023-07-13T14:54:39;22.20;56.70
75091;DHT22;63674;48.048;8.306;2023-07-13T14:57:11;22.10;62.50
75091;DHT22;63674;48.048;8.306;2023-07-13T14:59:40;22.10;60.00
75091;DHT22;63674;48.048;8.306;2023-07-13T15:02:16;22.10;59.30
75091;DHT22;63674;48.048;8.306;2023-07-13T15:04:48;22.10;60.90
75091;DHT22;63674;48.048;8.306;2023-07-13T15:07:17;22.10;60.80
75091;DHT22;63674;48.048;8.306;2023-07-13T15:09:47;22.00;61.50
75091;DHT22;63674;48.048;8.306;2023-07-13T15:12:17;22.10;62.00
75091;DHT22;63674;48.048;8.306;2023-07-13T15:14:47;22.10;59.00
75091;DHT22;63674;48.048;8.306;2023-07-13T15:17:24;22.40;59.10
75091;DHT22;63674;48.048;8.306;2023-07-13T15:19:57;22.70;65.90
75091;DHT22;63674;48.048;8.306;2023-07-13T15:22:26;22.90;57.10
75091;DHT22;63674;48.048;8.306;2023-07-13T15:24:55;22.80;52.00
75091;DHT22;63674;48.048;8.306;2023-07-13T15:27:29;22.70;57.10
75091;DHT22;63674;48.048;8.306;2023-07-13T15:29:58;22.80;54.60
75091;DHT22;63674;48.048;8.306;2023-07-13T15:32:27;23.00;54.70
75091;DHT22;63674;48.048;8.306;2023-07-13T15:34:57;22.90;57.00
75091;DHT22;63674;48.048;8.306;2023-07-13T15:37:26;23.00;59.10
75091;DHT22;63674;48.048;8.306;2023-07-13T15:39:54;22.70;53.40
75091;DHT22;63674;48.048;8.306;2023-07-13T15:42:23;22.70;58.50
75091;DHT22;63674;48.048;8.306;2023-07-13T15:44:51;22.90;56.80
75091;DHT22;63674;48.048;8.306;2023-07-13T15:47:20;22.80;53.80
75091;DHT22;63674;48.048;8.306;2023-07-13T15:49:49;22.80;58.70
75091;DHT22;63674;48.048;8.306;2023-07-13T15:52:22;22.70;56.10
75091;DHT22;63674;48.048;8.306;2023-07-13T15:54:51;22.60;53.90
75091;DHT22;63674;48.048;8.306;2023-07-13T15:57:20;22.60;58.80
75091;DHT22;63674;48.048;8.306;2023-07-13T15:59:48;22.70;57.50
75091;DHT22;63674;48.048;8.306;2023-07-13T16:02:19;22.50;55.50